createdAt,value
2023-05-01T00:00:11.047Z,100.00
2023-05-01T00:02:37.900Z,100.00
2023-05-01T00:05:04.819Z,100.00
2023-05-01T00:07:31.371Z,100.00
2023-05-01T00:09:58.319Z,100.00
2023-05-01T00:12:25.756Z,100.00
2023-05-01T00:14:54.228Z,100.00
2023-05-01T00:17:22.727Z,100.00
2023-05-01T00:19:53.539Z,100.00
2023-05-01T00:22:20.096Z,100.00
2023-05-01T00:24:48.941Z,100.00
2023-05-01T00:27:15.419Z,100.00
2023-05-01T00:29:45.019Z,100.00
2023-05-01T00:32:11.636Z,100.00
2023-05-01T00:34:38.219Z,100.00
2023-05-01T00:37:04.661Z,100.00
2023-05-01T00:39:31.221Z,100.00
2023-05-01T00:41:57.639Z,100.00
2023-05-01T00:44:24.201Z,100.00
2023-05-01T00:46:50.785Z,100.00
2023-05-01T00:49:18.019Z,100.00
2023-05-01T00:51:49.185Z,100.00
2023-05-01T00:54:15.758Z,100.00
2023-05-01T00:56:42.813Z,100.00
2023-05-01T00:59:09.350Z,100.00
2023-05-01T01:01:35.953Z,100.00
2023-05-01T01:04:02.476Z,100.00
2023-05-01T01:07:21.882Z,100.00
2023-05-01T01:10:06.525Z,100.00
2023-05-01T01:12:51.220Z,100.00
2023-05-01T01:15:34.712Z,100.00
2023-05-01T01:18:29.984Z,100.00
2023-05-01T01:21:18.773Z,100.00
2023-05-01T01:24:13.888Z,100.00
2023-05-01T01:26:58.778Z,100.00
2023-05-01T01:29:43.872Z,100.00
2023-05-01T01:32:16.949Z,100.00
2023-05-01T01:34:47.583Z,100.00
2023-05-01T01:37:24.889Z,100.00
2023-05-01T01:39:58.059Z,100.00
2023-05-01T01:42:36.387Z,100.00
2023-05-01T01:45:10.729Z,100.00
2023-05-01T01:47:42.164Z,100.00
2023-05-01T01:50:10.941Z,100.00
2023-05-01T01:52:40.662Z,100.00
2023-05-01T01:58:06.092Z,100.00
2023-05-01T02:00:34.897Z,100.00
2023-05-01T02:03:03.533Z,100.00
2023-05-01T02:05:33.050Z,100.00
2023-05-01T02:08:00.461Z,100.00
2023-05-01T02:10:28.832Z,100.00
2023-05-01T02:12:58.387Z,100.00
2023-05-01T02:15:26.597Z,100.00
2023-05-01T02:17:53.762Z,100.00
2023-05-01T02:20:21.953Z,100.00
2023-05-01T02:22:50.931Z,100.00
2023-05-01T02:25:17.524Z,100.00
2023-05-01T02:27:48.008Z,100.00
2023-05-01T02:30:14.533Z,100.00
2023-05-01T02:32:41.342Z,100.00
2023-05-01T02:35:08.201Z,100.00
2023-05-01T02:37:34.840Z,100.00
2023-05-01T02:40:02.982Z,100.00
2023-05-01T02:42:29.843Z,100.00
2023-05-01T02:45:23.663Z,100.00
2023-05-01T02:47:53.779Z,100.00
2023-05-01T02:50:21.917Z,100.00
2023-05-01T02:52:48.645Z,100.00
2023-05-01T02:55:15.506Z,100.00
2023-05-01T02:57:42.124Z,100.00
2023-05-01T03:00:10.055Z,100.00
2023-05-01T03:02:36.588Z,100.00
2023-05-01T03:05:03.052Z,100.00
2023-05-01T03:07:34.994Z,100.00
2023-05-01T03:10:04.016Z,100.00
2023-05-01T03:12:31.340Z,100.00
2023-05-01T03:14:57.891Z,100.00
2023-05-01T03:17:24.408Z,100.00
2023-05-01T03:19:51.603Z,100.00
2023-05-01T03:22:18.284Z,100.00
2023-05-01T03:24:44.754Z,100.00
2023-05-01T03:29:47.124Z,100.00
2023-05-01T03:32:13.755Z,100.00
2023-05-01T03:34:40.230Z,100.00
2023-05-01T03:37:06.774Z,100.00
2023-05-01T03:39:33.238Z,100.00
2023-05-01T03:41:59.748Z,100.00
2023-05-01T03:44:26.265Z,100.00
2023-05-01T03:46:52.842Z,100.00
2023-05-01T03:49:19.271Z,100.00
2023-05-01T03:51:46.020Z,100.00
2023-05-01T03:54:12.470Z,100.00
2023-05-01T03:56:38.931Z,100.00
2023-05-01T03:59:05.420Z,100.00
2023-05-01T04:01:33.662Z,100.00
2023-05-01T04:04:00.309Z,100.00
2023-05-01T04:06:27.186Z,100.00
2023-05-01T04:08:54.007Z,100.00
2023-05-01T04:11:21.141Z,100.00
2023-05-01T04:13:47.643Z,100.00
2023-05-01T04:16:14.234Z,100.00
2023-05-01T04:18:40.760Z,100.00
2023-05-01T04:21:07.527Z,100.00
2023-05-01T04:23:34.091Z,100.00
2023-05-01T04:26:00.593Z,100.00
2023-05-01T04:28:27.921Z,100.00
2023-05-01T04:30:54.393Z,100.00
2023-05-01T04:33:20.869Z,100.00
2023-05-01T04:35:47.350Z,100.00
2023-05-01T04:38:13.936Z,100.00
2023-05-01T04:40:40.480Z,100.00
2023-05-01T04:43:07.116Z,100.00
2023-05-01T04:45:33.640Z,100.00
2023-05-01T04:48:00.086Z,100.00
2023-05-01T04:50:26.865Z,100.00
2023-05-01T04:52:53.324Z,100.00
2023-05-01T04:55:19.906Z,100.00
2023-05-01T04:57:46.474Z,100.00
2023-05-01T05:00:13.437Z,100.00
2023-05-01T05:02:40.334Z,100.00
2023-05-01T05:05:07.028Z,100.00
2023-05-01T05:07:33.551Z,100.00
2023-05-01T05:10:00.074Z,100.00
2023-05-01T05:12:26.587Z,100.00
2023-05-01T05:14:53.332Z,100.00
2023-05-01T05:17:19.803Z,100.00
2023-05-01T05:19:46.557Z,100.00
2023-05-01T05:22:13.053Z,100.00
2023-05-01T05:24:39.452Z,100.00
2023-05-01T05:27:07.130Z,100.00
2023-05-01T05:29:34.950Z,100.00
2023-05-01T05:32:01.632Z,100.00
2023-05-01T05:34:28.160Z,100.00
2023-05-01T05:36:54.651Z,100.00
2023-05-01T05:39:23.973Z,100.00
2023-05-01T05:41:52.412Z,98.45
2023-05-01T05:44:18.837Z,93.75
2023-05-01T05:46:45.839Z,94.61
2023-05-01T05:49:12.294Z,91.23
2023-05-01T05:51:38.831Z,92.29
2023-05-01T05:54:05.384Z,91.84
2023-05-01T05:56:32.104Z,89.88
2023-05-01T05:58:58.584Z,88.64
2023-05-01T06:01:25.016Z,89.15
2023-05-01T06:03:51.537Z,86.02
2023-05-01T06:06:18.061Z,82.56
2023-05-01T06:08:46.213Z,80.40
2023-05-01T06:11:12.788Z,79.40
2023-05-01T06:13:39.270Z,77.32
2023-05-01T06:16:07.459Z,77.65
2023-05-01T06:21:16.326Z,76.74
2023-05-01T06:23:42.863Z,75.51
2023-05-01T06:26:10.048Z,73.06
2023-05-01T06:28:36.646Z,71.41
2023-05-01T06:31:03.141Z,71.40
2023-05-01T06:33:29.710Z,72.23
2023-05-01T06:35:56.271Z,71.58
2023-05-01T06:38:23.986Z,70.50
2023-05-01T06:40:52.663Z,69.75
2023-05-01T06:43:19.921Z,69.78
2023-05-01T06:45:46.421Z,67.78
2023-05-01T06:48:13.072Z,67.53
2023-05-01T06:50:39.695Z,66.17
2023-05-01T06:53:06.264Z,65.19
2023-05-01T06:55:33.906Z,64.40
2023-05-01T06:58:06.907Z,64.98
2023-05-01T07:00:39.210Z,65.26
2023-05-01T07:03:05.831Z,63.45
2023-05-01T07:05:32.361Z,63.33
2023-05-01T07:08:01.465Z,61.65
2023-05-01T07:10:29.157Z,61.01
2023-05-01T07:12:55.693Z,61.46
2023-05-01T07:15:22.330Z,59.43
2023-05-01T07:17:50.477Z,58.47
2023-05-01T07:20:17.109Z,58.05
2023-05-01T07:22:43.872Z,57.93
2023-05-01T07:25:10.437Z,56.93
2023-05-01T07:27:36.881Z,55.53
2023-05-01T07:32:38.619Z,53.62
2023-05-01T07:35:05.667Z,53.55
2023-05-01T07:37:32.204Z,53.90
2023-05-01T07:39:58.957Z,55.47
2023-05-01T07:42:28.447Z,54.96
2023-05-01T07:44:54.934Z,54.36
2023-05-01T07:47:21.434Z,54.88
2023-05-01T07:52:15.929Z,53.81
2023-05-01T08:00:06.745Z,51.69
2023-05-01T08:05:11.800Z,51.43
2023-05-01T08:07:38.294Z,52.46
2023-05-01T08:10:05.635Z,51.46
2023-05-01T08:12:32.312Z,50.42
2023-05-01T08:14:58.715Z,49.17
2023-05-01T08:17:25.198Z,49.38
2023-05-01T08:19:53.847Z,48.32
2023-05-01T08:22:20.576Z,49.29
2023-05-01T08:24:47.044Z,49.06
2023-05-01T08:27:13.531Z,49.69
2023-05-01T08:29:40.215Z,49.06
2023-05-01T08:32:06.940Z,47.51
2023-05-01T08:34:33.492Z,46.10
2023-05-01T08:37:00.166Z,45.73
2023-05-01T08:39:26.840Z,45.18
2023-05-01T08:41:54.010Z,44.04
2023-05-01T08:44:21.092Z,42.64
2023-05-01T08:46:49.899Z,43.05
2023-05-01T08:49:17.408Z,42.95
2023-05-01T08:51:48.260Z,42.71
2023-05-01T08:54:15.497Z,43.34
2023-05-01T08:56:44.587Z,42.54
2023-05-01T08:59:11.968Z,42.58
2023-05-01T09:01:39.621Z,41.80
2023-05-01T09:04:07.278Z,40.96
2023-05-01T09:06:34.157Z,41.23
2023-05-01T09:09:00.892Z,42.40
2023-05-01T09:11:28.287Z,42.61
2023-05-01T09:13:55.608Z,41.75
2023-05-01T09:16:22.166Z,40.74
2023-05-01T09:18:49.218Z,40.20
2023-05-01T09:21:15.818Z,39.07
2023-05-01T09:23:42.291Z,39.38
2023-05-01T09:26:08.740Z,39.28
2023-05-01T09:28:45.783Z,39.58
2023-05-01T09:31:23.689Z,38.76
2023-05-01T09:33:55.495Z,38.64
2023-05-01T09:36:23.815Z,39.47
2023-05-01T09:38:51.381Z,39.75
2023-05-01T09:41:20.878Z,38.50
2023-05-01T09:43:52.564Z,36.95
2023-05-01T09:46:20.082Z,36.03
2023-05-01T09:49:00.299Z,35.43
2023-05-01T09:51:29.335Z,36.73
2023-05-01T09:54:00.231Z,35.57
2023-05-01T09:56:28.390Z,36.68
2023-05-01T09:58:56.428Z,38.85
2023-05-01T10:01:43.502Z,37.43
2023-05-01T10:04:10.273Z,37.19
2023-05-01T10:06:38.101Z,36.91
2023-05-01T10:09:07.256Z,36.74
2023-05-01T10:11:52.135Z,35.04
2023-05-01T10:14:18.716Z,35.11
2023-05-01T10:16:45.238Z,36.52
2023-05-01T10:19:12.624Z,37.56
2023-05-01T10:21:39.229Z,37.33
2023-05-01T10:24:07.270Z,38.51
2023-05-01T10:26:34.885Z,37.17
2023-05-01T10:29:02.896Z,37.05
2023-05-01T10:31:32.496Z,37.60
2023-05-01T10:34:02.950Z,36.98
2023-05-01T10:36:44.934Z,37.92
2023-05-01T10:39:34.801Z,38.08
2023-05-01T10:42:03.825Z,37.70
2023-05-01T10:44:30.893Z,38.67
2023-05-01T10:46:58.041Z,40.89
2023-05-01T10:49:24.751Z,39.45
2023-05-01T10:52:00.281Z,38.51
2023-05-01T10:54:33.595Z,41.20
2023-05-01T10:57:02.956Z,41.41
2023-05-01T11:00:01.341Z,44.91
2023-05-01T11:02:28.311Z,40.06
2023-05-01T11:04:56.377Z,42.28
2023-05-01T11:07:23.966Z,40.66
2023-05-01T11:09:58.701Z,44.06
2023-05-01T11:12:46.989Z,41.38
2023-05-01T11:15:26.157Z,43.67
2023-05-01T11:17:52.933Z,41.08
2023-05-01T11:20:25.314Z,44.21
2023-05-01T11:22:53.526Z,43.21
2023-05-01T11:25:22.318Z,41.40
2023-05-01T11:27:50.688Z,40.62
2023-05-01T11:30:17.544Z,39.85
2023-05-01T11:32:46.151Z,39.45
2023-05-01T11:35:32.480Z,40.48
2023-05-01T11:37:58.922Z,37.71
2023-05-01T11:40:31.551Z,40.12
2023-05-01T11:43:05.309Z,35.93
2023-05-01T11:45:32.881Z,35.08
2023-05-01T11:48:02.136Z,38.08
2023-05-01T11:50:37.347Z,41.57
2023-05-01T11:53:11.681Z,36.50
2023-05-01T11:55:40.035Z,36.40
2023-05-01T11:58:06.853Z,36.56
2023-05-01T12:00:36.868Z,36.09
2023-05-01T12:03:08.996Z,38.91
2023-05-01T12:05:42.216Z,40.44
2023-05-01T12:08:09.648Z,39.70
2023-05-01T12:10:37.233Z,38.76
2023-05-01T12:13:04.775Z,38.95
2023-05-01T12:15:34.313Z,39.43
2023-05-01T12:18:01.016Z,40.23
2023-05-01T12:20:45.139Z,39.19
2023-05-01T12:23:13.240Z,38.68
2023-05-01T12:25:41.041Z,42.06
2023-05-01T12:28:15.997Z,40.07
2023-05-01T12:30:43.844Z,42.52
2023-05-01T12:33:21.217Z,39.80
2023-05-01T12:35:49.757Z,39.74
2023-05-01T12:38:18.377Z,39.49
2023-05-01T12:40:51.427Z,39.81
2023-05-01T12:43:19.345Z,40.85
2023-05-01T12:45:50.842Z,40.81
2023-05-01T12:48:17.544Z,42.49
2023-05-01T12:50:45.956Z,41.99
2023-05-01T12:53:13.875Z,39.99
2023-05-01T12:55:48.347Z,39.76
2023-05-01T12:58:16.251Z,39.50
2023-05-01T13:00:48.231Z,40.35
2023-05-01T13:03:18.154Z,45.32
2023-05-01T13:05:52.358Z,40.72
2023-05-01T13:08:28.061Z,40.24
2023-05-01T13:11:00.088Z,41.22
2023-05-01T13:13:31.916Z,45.18
2023-05-01T13:16:12.361Z,45.24
2023-05-01T13:18:51.316Z,41.29
2023-05-01T13:21:20.631Z,43.32
2023-05-01T13:23:54.440Z,42.02
2023-05-01T13:26:32.795Z,43.19
2023-05-01T13:29:02.087Z,41.65
2023-05-01T13:31:29.468Z,41.84
2023-05-01T13:33:58.494Z,41.77
2023-05-01T13:36:27.049Z,43.27
2023-05-01T13:38:56.104Z,42.31
2023-05-01T13:41:25.706Z,41.03
2023-05-01T13:43:54.598Z,41.23
2023-05-01T13:46:23.206Z,40.92
2023-05-01T13:48:50.358Z,40.96
2023-05-01T13:51:25.082Z,41.11
2023-05-01T13:53:53.053Z,39.88
2023-05-01T13:56:19.857Z,43.53
2023-05-01T13:58:46.401Z,40.23
2023-05-01T14:01:18.779Z,40.55
2023-05-01T14:03:46.000Z,41.97
2023-05-01T14:06:16.377Z,44.27
2023-05-01T14:08:44.475Z,38.13
2023-05-01T14:11:14.642Z,43.41
2023-05-01T14:13:42.960Z,40.01
2023-05-01T14:16:11.608Z,37.92
2023-05-01T14:18:45.849Z,38.12
2023-05-01T14:21:14.956Z,38.06
2023-05-01T14:23:44.320Z,38.98
2023-05-01T14:26:16.998Z,39.00
2023-05-01T14:28:44.762Z,41.44
2023-05-01T14:31:17.652Z,41.53
2023-05-01T14:33:44.660Z,42.45
2023-05-01T14:36:12.360Z,41.20
2023-05-01T14:38:40.386Z,40.65
2023-05-01T14:41:08.248Z,40.34
2023-05-01T14:43:35.809Z,39.74
2023-05-01T14:46:02.697Z,39.59
2023-05-01T14:48:35.640Z,40.16
2023-05-01T14:51:04.409Z,40.20
2023-05-01T14:53:32.679Z,39.02
2023-05-01T14:55:59.223Z,38.15
2023-05-01T14:58:25.686Z,39.20
2023-05-01T15:00:52.126Z,39.68
2023-05-01T15:03:18.772Z,40.11
2023-05-01T15:05:46.235Z,40.13
2023-05-01T15:08:12.918Z,40.32
2023-05-01T15:10:39.317Z,41.35
2023-05-01T15:13:06.699Z,41.61
2023-05-01T15:15:33.273Z,41.28
2023-05-01T15:17:59.808Z,41.44
2023-05-01T15:20:26.410Z,41.87
2023-05-01T15:22:53.202Z,42.18
2023-05-01T15:25:19.639Z,40.04
2023-05-01T15:27:46.484Z,40.41
2023-05-01T15:30:14.913Z,39.83
2023-05-01T15:32:41.932Z,40.14
2023-05-01T15:35:08.741Z,40.22
2023-05-01T15:37:35.282Z,40.23
2023-05-01T15:40:04.232Z,40.46
2023-05-01T15:42:30.851Z,40.10
2023-05-01T15:44:57.787Z,39.94
2023-05-01T15:47:24.510Z,40.39
2023-05-01T15:49:51.008Z,39.86
2023-05-01T15:52:17.713Z,39.91
2023-05-01T15:54:47.239Z,39.93
2023-05-01T15:57:14.832Z,40.10
2023-05-01T15:59:41.644Z,40.32
2023-05-01T16:02:08.778Z,40.38
2023-05-01T16:04:35.958Z,39.98
2023-05-01T16:07:02.926Z,40.53
2023-05-01T16:09:31.810Z,40.70
2023-05-01T16:11:59.561Z,40.75
2023-05-01T16:14:26.734Z,40.57
2023-05-01T16:16:53.642Z,40.52
2023-05-01T16:19:20.262Z,40.38
2023-05-01T16:21:46.738Z,40.02
2023-05-01T16:24:14.246Z,40.16
2023-05-01T16:26:41.530Z,40.27
2023-05-01T16:29:08.175Z,40.15
2023-05-01T16:31:47.072Z,39.81
2023-05-01T16:34:15.684Z,40.22
2023-05-01T16:36:42.673Z,40.74
2023-05-01T16:39:22.129Z,40.78
2023-05-01T16:41:54.917Z,40.88
2023-05-01T16:44:22.263Z,40.86
2023-05-01T16:46:53.847Z,41.01
2023-05-01T16:49:20.625Z,41.58
2023-05-01T16:51:47.233Z,41.37
2023-05-01T16:54:13.785Z,41.28
2023-05-01T16:56:40.330Z,41.44
2023-05-01T16:59:06.857Z,41.64
2023-05-01T17:01:34.489Z,41.84
2023-05-01T17:04:01.173Z,41.80
2023-05-01T17:06:27.758Z,41.80
2023-05-01T17:08:54.904Z,41.98
2023-05-01T17:11:21.629Z,41.75
2023-05-01T17:13:48.116Z,41.92
2023-05-01T17:16:14.655Z,42.13
2023-05-01T17:18:41.254Z,42.52
2023-05-01T17:21:07.699Z,42.80
2023-05-01T17:23:34.248Z,42.84
2023-05-01T17:26:00.850Z,42.28
2023-05-01T17:28:27.696Z,42.38
2023-05-01T17:30:54.371Z,42.45
2023-05-01T17:33:21.517Z,42.37
2023-05-01T17:35:48.188Z,42.19
2023-05-01T17:38:14.700Z,42.40
2023-05-01T17:40:41.334Z,42.33
2023-05-01T17:43:07.888Z,42.51
2023-05-01T17:45:34.411Z,42.17
2023-05-01T17:48:01.099Z,42.42
2023-05-01T17:50:27.773Z,42.59
2023-05-01T17:52:54.287Z,42.55
2023-05-01T17:55:21.124Z,42.63
2023-05-01T17:57:47.809Z,42.50
2023-05-01T18:00:14.738Z,42.86
2023-05-01T18:02:44.419Z,42.70
2023-05-01T18:05:11.267Z,42.87
2023-05-01T18:07:39.894Z,43.13
2023-05-01T18:10:07.114Z,43.74
2023-05-01T18:12:33.525Z,44.55
2023-05-01T18:14:59.982Z,44.77
2023-05-01T18:17:26.734Z,45.45
2023-05-01T18:19:53.226Z,45.51
2023-05-01T18:22:19.933Z,45.55
2023-05-01T18:24:46.452Z,45.90
2023-05-01T18:27:12.845Z,46.61
2023-05-01T18:29:39.306Z,46.95
2023-05-01T18:32:06.860Z,47.58
2023-05-01T18:34:33.642Z,47.98
2023-05-01T18:37:00.127Z,47.27
2023-05-01T18:39:26.581Z,47.56
2023-05-01T18:41:54.292Z,47.79
2023-05-01T18:44:21.029Z,48.55
2023-05-01T18:46:47.606Z,48.47
2023-05-01T18:49:14.250Z,48.76
2023-05-01T18:51:40.887Z,48.91
2023-05-01T18:54:09.757Z,49.20
2023-05-01T18:56:36.240Z,49.35
2023-05-01T18:59:02.924Z,50.69
2023-05-01T19:01:29.571Z,51.45
2023-05-01T19:03:58.961Z,52.29
2023-05-01T19:06:28.506Z,53.03
2023-05-01T19:08:55.414Z,53.98
2023-05-01T19:11:21.876Z,53.96
2023-05-01T19:13:48.753Z,53.60
2023-05-01T19:16:15.375Z,53.81
2023-05-01T19:18:41.855Z,53.72
2023-05-01T19:21:08.296Z,54.66
2023-05-01T19:23:35.566Z,56.10
2023-05-01T19:26:04.626Z,57.49
2023-05-01T19:28:31.258Z,56.01
2023-05-01T19:30:57.859Z,55.53
2023-05-01T19:33:24.366Z,56.75
2023-05-01T19:35:51.071Z,58.31
2023-05-01T19:38:17.590Z,60.01
2023-05-01T19:40:45.179Z,60.51
2023-05-01T19:43:14.821Z,60.68
2023-05-01T19:45:42.449Z,61.44
2023-05-01T19:48:09.227Z,62.25
2023-05-01T19:50:35.844Z,63.66
2023-05-01T19:53:02.529Z,64.18
2023-05-01T19:55:28.968Z,65.13
2023-05-01T19:57:55.577Z,65.16
2023-05-01T20:00:22.056Z,65.03
2023-05-01T20:02:48.555Z,66.77
2023-05-01T20:05:15.194Z,67.10
2023-05-01T20:07:41.834Z,67.05
2023-05-01T20:10:09.703Z,67.53
2023-05-01T20:12:37.023Z,67.73
2023-05-01T20:15:04.405Z,68.11
2023-05-01T20:17:30.877Z,68.50
2023-05-01T20:19:57.565Z,69.44
2023-05-01T20:22:24.278Z,69.46
2023-05-01T20:24:50.743Z,69.90
2023-05-01T20:27:17.268Z,69.29
2023-05-01T20:32:09.414Z,70.75
2023-05-01T20:34:35.911Z,71.48
2023-05-01T20:37:02.386Z,71.86
2023-05-01T20:39:28.857Z,72.62
2023-05-01T20:41:56.033Z,72.40
2023-05-01T20:44:22.584Z,72.81
2023-05-01T20:46:49.122Z,72.76
2023-05-01T20:49:16.238Z,72.72
2023-05-01T20:51:42.864Z,73.91
2023-05-01T20:54:09.331Z,73.44
2023-05-01T20:56:35.816Z,73.87
2023-05-01T20:59:03.546Z,72.99
2023-05-01T21:01:31.769Z,72.33
2023-05-01T21:04:01.434Z,72.10
2023-05-01T21:06:31.603Z,72.95
2023-05-01T21:08:59.696Z,73.81
2023-05-01T21:11:26.687Z,73.66
2023-05-01T21:13:53.144Z,72.84
2023-05-01T21:16:19.853Z,72.53
2023-05-01T21:18:46.593Z,72.51
2023-05-01T21:21:14.849Z,74.30
2023-05-01T21:23:47.900Z,73.91
2023-05-01T21:26:15.842Z,73.54
2023-05-01T21:28:43.585Z,73.92
2023-05-01T21:31:12.883Z,74.22
2023-05-01T21:33:40.438Z,73.79
2023-05-01T21:36:07.064Z,74.40
2023-05-01T21:38:35.160Z,73.58
2023-05-01T21:41:01.598Z,72.46
2023-05-01T21:43:28.306Z,72.99
2023-05-01T21:45:54.810Z,74.45
2023-05-01T21:48:21.267Z,76.63
2023-05-01T21:50:51.232Z,77.86
2023-05-01T21:53:17.669Z,73.50
2023-05-01T21:55:46.375Z,72.68
2023-05-01T21:58:13.804Z,72.98
2023-05-01T22:00:41.777Z,72.94
2023-05-01T22:03:09.176Z,67.90
2023-05-01T22:05:36.290Z,68.08
2023-05-01T22:08:02.745Z,68.28
2023-05-01T22:10:29.685Z,66.58
2023-05-01T22:12:56.169Z,64.54
2023-05-01T22:15:22.676Z,63.73
2023-05-01T22:17:49.112Z,63.00
2023-05-01T22:20:15.715Z,63.33
2023-05-01T22:22:43.059Z,63.39
2023-05-01T22:25:10.210Z,62.65
2023-05-01T22:27:38.000Z,62.34
2023-05-01T22:30:05.815Z,60.24
2023-05-01T22:32:32.368Z,60.19
2023-05-01T22:34:59.094Z,60.41
2023-05-01T22:37:25.803Z,60.58
2023-05-01T22:39:53.449Z,61.14
2023-05-01T22:42:20.045Z,61.35
2023-05-01T22:44:46.552Z,61.46
2023-05-01T22:47:12.962Z,61.21
2023-05-01T22:49:39.623Z,62.04
2023-05-01T22:52:06.072Z,61.28
2023-05-01T22:54:32.528Z,60.90
2023-05-01T22:56:59.008Z,60.58
2023-05-01T22:59:26.001Z,60.34
2023-05-01T23:16:48.569Z,58.56
2023-05-01T23:19:22.814Z,58.21
2023-05-01T23:21:51.134Z,57.82
2023-05-01T23:24:20.169Z,57.98
2023-05-01T23:26:47.156Z,57.86
2023-05-01T23:29:14.059Z,57.52
2023-05-01T23:31:46.693Z,57.36
2023-05-01T23:34:17.433Z,57.24
2023-05-01T23:36:45.972Z,56.85
2023-05-01T23:39:12.788Z,56.43
2023-05-01T23:41:39.694Z,56.44
2023-05-01T23:44:06.429Z,55.95
2023-05-01T23:46:32.944Z,55.75
2023-05-01T23:48:59.626Z,56.50
2023-05-01T23:51:27.628Z,56.10
2023-05-01T23:53:54.047Z,55.71
2023-05-01T23:56:20.752Z,55.37
2023-05-01T23:58:47.171Z,55.06
